createdAt,value
2018-02-20T00:01:34.350Z,19.73
2018-02-20T00:04:00.973Z,19.71
2018-02-20T00:06:27.556Z,19.72
2018-02-20T00:08:54.113Z,19.71
2018-02-20T00:11:20.740Z,19.70
2018-02-20T00:13:47.309Z,19.71
2018-02-20T00:16:13.868Z,19.68
2018-02-20T00:18:40.474Z,19.70
2018-02-20T00:21:07.036Z,19.70
2018-02-20T00:23:33.632Z,19.69
2018-02-20T00:26:00.237Z,19.68
2018-02-20T00:28:26.807Z,19.65
2018-02-20T00:30:53.373Z,19.71
2018-02-20T00:33:19.978Z,19.84
2018-02-20T00:35:46.550Z,19.96
2018-02-20T00:38:13.173Z,20.13
2018-02-20T00:40:39.769Z,20.27
2018-02-20T00:43:06.349Z,20.26
2018-02-20T00:45:32.894Z,20.25
2018-02-20T00:47:59.458Z,20.11
2018-02-20T00:50:26.030Z,20.06
2018-02-20T00:52:52.596Z,20.00
2018-02-20T00:55:19.231Z,19.97
2018-02-20T00:57:45.841Z,19.93
2018-02-20T01:00:12.503Z,19.91
2018-02-20T01:02:39.062Z,19.88
2018-02-20T01:05:05.669Z,19.88
2018-02-20T01:07:32.228Z,19.90
2018-02-20T01:09:58.853Z,19.84
2018-02-20T01:12:25.417Z,19.87
2018-02-20T01:14:51.977Z,19.89
2018-02-20T01:17:18.583Z,19.84
2018-02-20T01:19:45.166Z,19.81
2018-02-20T01:22:11.732Z,19.81
2018-02-20T01:24:38.345Z,19.80
2018-02-20T01:27:04.927Z,19.78
2018-02-20T01:29:31.604Z,19.82
2018-02-20T01:31:58.182Z,19.80
2018-02-20T01:34:24.861Z,19.75
2018-02-20T01:36:51.411Z,19.76
2018-02-20T01:39:18.060Z,19.75
2018-02-20T01:41:44.617Z,19.74
2018-02-20T01:44:11.189Z,19.71
2018-02-20T01:46:37.757Z,19.68
2018-02-20T01:49:04.317Z,19.68
2018-02-20T01:51:30.935Z,19.70
2018-02-20T01:53:57.517Z,19.68
2018-02-20T01:56:24.162Z,19.70
2018-02-20T01:58:50.803Z,19.66
2018-02-20T02:01:17.360Z,19.67
2018-02-20T02:03:43.949Z,19.66
2018-02-20T02:06:10.571Z,19.64
2018-02-20T02:08:37.171Z,19.64
2018-02-20T02:11:03.735Z,19.67
2018-02-20T02:13:30.363Z,19.58
2018-02-20T02:15:56.982Z,19.57
2018-02-20T02:18:23.544Z,19.58
2018-02-20T02:20:50.151Z,19.61
2018-02-20T02:23:16.725Z,19.59
2018-02-20T02:25:43.341Z,19.55
2018-02-20T02:28:09.904Z,19.55
2018-02-20T02:30:36.575Z,19.58
2018-02-20T02:33:03.142Z,19.54
2018-02-20T02:35:29.722Z,19.54
2018-02-20T02:37:56.324Z,19.54
2018-02-20T02:40:22.887Z,19.51
2018-02-20T02:42:49.500Z,19.51
2018-02-20T02:45:16.053Z,19.51
2018-02-20T02:47:42.741Z,19.41
2018-02-20T02:50:09.348Z,19.44
2018-02-20T02:52:35.945Z,19.48
2018-02-20T02:55:02.550Z,19.45
2018-02-20T02:57:29.111Z,19.45
2018-02-20T02:59:55.711Z,19.42
2018-02-20T03:02:22.279Z,19.41
2018-02-20T03:04:48.835Z,19.37
2018-02-20T03:07:15.441Z,19.38
2018-02-20T03:09:42.007Z,19.37
2018-02-20T03:12:08.625Z,19.40
2018-02-20T03:14:35.265Z,19.34
2018-02-20T03:17:01.897Z,19.34
2018-02-20T03:19:28.458Z,19.34
2018-02-20T03:21:55.030Z,19.35
2018-02-20T03:24:21.643Z,19.33
2018-02-20T03:26:48.219Z,19.34
2018-02-20T03:29:14.906Z,19.29
2018-02-20T03:31:41.550Z,19.30
2018-02-20T03:34:08.099Z,19.29
2018-02-20T03:36:34.699Z,19.32
2018-02-20T03:39:01.327Z,19.26
2018-02-20T03:41:27.881Z,19.27
2018-02-20T03:43:54.441Z,19.27
2018-02-20T03:46:21.042Z,19.23
2018-02-20T03:48:47.614Z,19.25
2018-02-20T03:51:14.209Z,19.23
2018-02-20T03:53:40.782Z,19.25
2018-02-20T03:56:07.346Z,19.26
2018-02-20T03:58:33.904Z,19.25
2018-02-20T04:01:00.520Z,19.24
2018-02-20T04:03:27.090Z,19.24
2018-02-20T04:05:53.664Z,19.24
2018-02-20T04:08:20.228Z,19.23
2018-02-20T04:10:46.801Z,19.28
2018-02-20T04:13:13.361Z,19.75
2018-02-20T04:15:39.947Z,20.08
2018-02-20T04:18:06.562Z,20.79
2018-02-20T04:20:33.127Z,21.05
2018-02-20T04:22:59.685Z,20.65
2018-02-20T04:25:26.250Z,20.80
2018-02-20T04:27:52.815Z,21.38
2018-02-20T04:30:19.392Z,21.86
2018-02-20T04:32:45.958Z,21.58
2018-02-20T04:35:12.553Z,20.51
2018-02-20T04:37:39.121Z,19.98
2018-02-20T04:40:05.718Z,19.74
2018-02-20T04:42:32.290Z,19.64
2018-02-20T04:44:58.862Z,19.54
2018-02-20T04:47:25.427Z,19.48
2018-02-20T04:49:52.065Z,19.39
2018-02-20T04:52:18.621Z,19.39
2018-02-20T04:54:45.248Z,19.38
2018-02-20T04:57:11.846Z,19.36
2018-02-20T04:59:38.411Z,19.32
2018-02-20T05:02:05.021Z,19.30
2018-02-20T05:04:31.645Z,19.29
2018-02-20T05:06:58.209Z,19.30
2018-02-20T05:09:24.807Z,19.29
2018-02-20T05:11:51.362Z,19.35
2018-02-20T05:14:17.933Z,19.35
2018-02-20T05:16:44.516Z,19.84
2018-02-20T05:19:11.076Z,19.54
2018-02-20T05:21:37.644Z,19.52
2018-02-20T05:24:04.234Z,19.48
2018-02-20T05:26:30.799Z,19.52
2018-02-20T05:28:57.368Z,19.54
2018-02-20T05:31:23.950Z,19.61
2018-02-20T05:33:50.525Z,19.59
2018-02-20T05:36:17.134Z,19.45
2018-02-20T05:38:43.714Z,19.75
2018-02-20T05:41:10.469Z,19.80
2018-02-20T05:43:37.042Z,19.80
2018-02-20T05:46:03.651Z,19.68
2018-02-20T05:48:30.230Z,19.79
2018-02-20T05:50:56.955Z,19.73
2018-02-20T05:53:23.525Z,19.86
2018-02-20T05:55:50.190Z,19.85
2018-02-20T05:58:16.770Z,19.83
2018-02-20T06:00:43.425Z,20.08
2018-02-20T06:03:09.996Z,20.10
2018-02-20T06:05:36.603Z,20.08
2018-02-20T06:08:03.163Z,19.99
2018-02-20T06:10:29.734Z,19.96
2018-02-20T06:12:56.358Z,19.94
2018-02-20T06:15:22.929Z,19.96
2018-02-20T06:17:49.560Z,19.89
2018-02-20T06:20:16.140Z,19.87
2018-02-20T06:22:42.931Z,19.88
2018-02-20T06:25:09.499Z,19.87
2018-02-20T06:27:36.101Z,19.84
2018-02-20T06:30:02.871Z,19.87
2018-02-20T06:32:29.455Z,19.74
2018-02-20T06:34:56.058Z,20.02
2018-02-20T06:37:22.842Z,20.22
2018-02-20T06:39:49.400Z,19.91
2018-02-20T06:42:15.991Z,20.11
2018-02-20T06:44:42.585Z,20.25
2018-02-20T06:47:09.198Z,20.44
2018-02-20T06:49:35.791Z,20.43
2018-02-20T06:52:02.534Z,20.50
2018-02-20T06:54:29.116Z,20.36
2018-02-20T06:56:55.681Z,20.48
2018-02-20T06:59:22.271Z,20.65
2018-02-20T07:01:48.943Z,20.61
2018-02-20T07:04:15.626Z,20.67
2018-02-20T07:06:42.305Z,20.55
2018-02-20T07:09:09.000Z,20.44
2018-02-20T07:11:35.762Z,20.68
2018-02-20T07:14:02.329Z,20.56
2018-02-20T07:16:28.949Z,20.61
2018-02-20T07:18:55.702Z,20.66
2018-02-20T07:21:22.325Z,20.68
2018-02-20T07:23:48.984Z,20.67
2018-02-20T07:26:15.571Z,20.47
2018-02-20T07:28:42.330Z,20.46
2018-02-20T07:31:08.873Z,20.54
2018-02-20T07:33:44.275Z,20.55
2018-02-20T07:42:16.736Z,20.52
2018-02-20T07:44:43.310Z,20.68
2018-02-20T07:47:09.991Z,20.71
2018-02-20T07:49:36.617Z,20.59
2018-02-20T07:52:03.246Z,20.62
2018-02-20T07:54:29.839Z,20.67
2018-02-20T07:56:56.478Z,20.79
2018-02-20T07:59:23.046Z,20.89
2018-02-20T08:01:49.924Z,20.60
2018-02-20T08:04:16.483Z,20.76
2018-02-20T08:06:43.178Z,20.94
2018-02-20T08:09:09.801Z,21.13
2018-02-20T08:11:36.428Z,21.01
2018-02-20T08:14:03.005Z,21.36
2018-02-20T08:16:29.699Z,21.58
2018-02-20T08:18:56.449Z,21.75
2018-02-20T08:21:24.221Z,21.62
2018-02-20T08:23:50.815Z,21.86
2018-02-20T08:26:17.399Z,21.36
2018-02-20T08:28:45.048Z,21.39
2018-02-20T08:31:11.643Z,21.48
2018-02-20T08:33:38.311Z,21.42
2018-02-20T08:36:04.995Z,21.44
2018-02-20T08:38:31.630Z,21.43
2018-02-20T08:40:58.245Z,21.40
2018-02-20T08:43:24.978Z,21.37
2018-02-20T08:45:51.692Z,21.33
2018-02-20T08:48:18.375Z,21.29
2018-02-20T08:50:45.136Z,21.11
2018-02-20T08:53:11.752Z,21.26
2018-02-20T08:55:38.324Z,21.25
2018-02-20T08:58:05.101Z,21.47
2018-02-20T09:00:31.679Z,21.62
2018-02-20T09:02:58.280Z,21.85
2018-02-20T09:05:26.182Z,21.99
2018-02-20T09:07:51.591Z,21.99
2018-02-20T09:10:18.225Z,21.95
2018-02-20T09:12:50.300Z,21.85
2018-02-20T09:15:15.746Z,21.72
2018-02-20T09:17:42.401Z,21.57
2018-02-20T09:20:09.157Z,21.44
2018-02-20T09:22:35.839Z,21.47
2018-02-20T09:25:02.421Z,21.23
2018-02-20T09:27:29.089Z,21.05
2018-02-20T09:29:55.676Z,21.09
2018-02-20T09:32:22.328Z,21.01
2018-02-20T09:34:49.055Z,20.98
2018-02-20T09:37:15.704Z,20.83
2018-02-20T09:39:42.427Z,21.00
2018-02-20T09:42:09.062Z,21.07
2018-02-20T09:44:35.751Z,20.98
2018-02-20T09:47:02.457Z,21.10
2018-02-20T09:49:29.154Z,20.96
2018-02-20T09:51:55.851Z,20.88
2018-02-20T09:54:22.471Z,20.94
2018-02-20T09:56:49.025Z,20.84
2018-02-20T09:59:15.699Z,20.83
2018-02-20T10:01:42.341Z,20.88
2018-02-20T10:04:09.013Z,20.69
2018-02-20T10:06:35.577Z,20.70
2018-02-20T10:09:02.206Z,20.80
2018-02-20T10:11:28.772Z,20.67
2018-02-20T10:13:55.691Z,20.56
2018-02-20T10:16:22.342Z,20.54
2018-02-20T10:18:48.994Z,20.68
2018-02-20T10:21:15.596Z,20.49
2018-02-20T10:23:42.230Z,20.43
2018-02-20T10:26:08.956Z,20.09
2018-02-20T10:28:35.660Z,20.51
2018-02-20T10:31:02.262Z,20.68
2018-02-20T10:33:28.872Z,20.42
2018-02-20T10:35:55.521Z,20.57
2018-02-20T10:38:22.162Z,20.40
2018-02-20T10:40:48.818Z,20.37
2018-02-20T10:43:15.458Z,20.41
2018-02-20T10:45:42.210Z,20.36
2018-02-20T10:48:08.697Z,20.25
2018-02-20T10:50:35.457Z,20.23
2018-02-20T10:53:02.036Z,20.33
2018-02-20T10:55:28.627Z,20.37
2018-02-20T10:57:55.305Z,20.24
2018-02-20T11:00:22.225Z,20.29
2018-02-20T11:02:48.866Z,20.30
2018-02-20T11:05:15.444Z,20.10
2018-02-20T11:07:42.072Z,20.51
2018-02-20T11:10:09.044Z,20.26
2018-02-20T11:12:35.785Z,20.56
2018-02-20T11:15:02.438Z,20.78
2018-02-20T11:17:29.029Z,20.60
2018-02-20T11:19:55.661Z,20.43
2018-02-20T11:22:22.291Z,20.77
2018-02-20T11:24:48.874Z,20.57
2018-02-20T11:27:15.487Z,20.74
2018-02-20T11:29:42.096Z,20.70
2018-02-20T11:32:08.821Z,20.51
2018-02-20T11:34:38.574Z,20.69
2018-02-20T11:37:05.177Z,20.60
2018-02-20T11:39:31.809Z,20.75
2018-02-20T11:41:58.385Z,20.69
2018-02-20T11:44:25.034Z,20.56
2018-02-20T11:46:51.656Z,20.50
2018-02-20T11:49:18.265Z,20.74
2018-02-20T11:51:44.894Z,20.68
2018-02-20T11:54:11.647Z,20.62
2018-02-20T11:56:38.306Z,20.78
2018-02-20T11:59:04.900Z,20.69
2018-02-20T12:01:31.698Z,20.35
2018-02-20T12:03:59.135Z,20.53
2018-02-20T12:06:25.876Z,20.77
2018-02-20T12:08:52.817Z,20.55
2018-02-20T12:11:19.459Z,20.53
2018-02-20T12:13:46.046Z,20.66
2018-02-20T12:16:12.628Z,20.51
2018-02-20T12:18:39.196Z,20.62
2018-02-20T12:21:05.815Z,20.64
2018-02-20T12:23:32.474Z,20.75
2018-02-20T12:25:59.067Z,20.71
2018-02-20T12:28:25.791Z,20.60
2018-02-20T12:30:52.560Z,20.51
2018-02-20T12:33:19.181Z,20.55
2018-02-20T12:35:45.783Z,20.66
2018-02-20T12:38:14.403Z,20.85
2018-02-20T12:40:41.034Z,21.06
2018-02-20T12:43:07.610Z,21.28
2018-02-20T12:45:34.249Z,21.75
2018-02-20T12:48:00.857Z,21.61
2018-02-20T12:50:27.443Z,21.51
2018-02-20T12:52:54.157Z,21.67
2018-02-20T12:55:20.727Z,21.58
2018-02-20T12:57:47.343Z,21.44
2018-02-20T13:00:13.982Z,21.45
2018-02-20T13:02:40.728Z,21.44
2018-02-20T13:05:07.343Z,21.37
2018-02-20T13:07:33.985Z,21.32
2018-02-20T13:10:00.711Z,21.26
2018-02-20T13:12:27.296Z,21.33
2018-02-20T13:14:53.922Z,21.28
2018-02-20T13:17:20.547Z,21.27
2018-02-20T13:19:47.171Z,21.29
2018-02-20T13:22:13.765Z,21.14
2018-02-20T13:24:40.436Z,21.39
2018-02-20T13:27:07.115Z,21.29
2018-02-20T13:29:33.713Z,21.27
2018-02-20T13:32:00.338Z,21.20
2018-02-20T13:34:26.919Z,21.10
2018-02-20T13:36:53.556Z,21.13
2018-02-20T13:39:20.251Z,21.08
2018-02-20T13:41:46.887Z,21.12
2018-02-20T13:44:13.623Z,21.08
2018-02-20T13:46:40.312Z,20.92
2018-02-20T13:49:06.997Z,21.01
2018-02-20T13:51:33.593Z,20.83
2018-02-20T13:54:00.483Z,20.78
2018-02-20T13:56:27.161Z,20.87
2018-02-20T13:58:53.785Z,21.11
2018-02-20T14:01:20.365Z,21.11
2018-02-20T14:03:47.039Z,21.19
2018-02-20T14:06:13.670Z,21.41
2018-02-20T14:08:40.322Z,21.18
2018-02-20T14:11:06.944Z,21.46
2018-02-20T14:13:33.547Z,21.35
2018-02-20T14:16:00.181Z,21.15
2018-02-20T14:18:26.884Z,21.30
2018-02-20T14:20:53.489Z,21.33
2018-02-20T14:23:20.143Z,21.31
2018-02-20T14:25:46.868Z,21.26
2018-02-20T14:28:13.587Z,21.17
2018-02-20T14:30:40.282Z,21.10
2018-02-20T14:33:06.959Z,21.12
2018-02-20T14:35:33.470Z,21.22
2018-02-20T14:38:00.183Z,21.25
2018-02-20T14:40:26.768Z,21.44
2018-02-20T14:42:53.424Z,21.20
2018-02-20T14:45:20.025Z,21.14
2018-02-20T14:47:46.637Z,21.08
2018-02-20T14:50:13.253Z,21.04
2018-02-20T14:52:39.904Z,21.27
2018-02-20T14:56:37.816Z,20.98
2018-02-20T14:59:04.513Z,21.21
2018-02-20T15:01:31.159Z,21.24
2018-02-20T15:03:57.843Z,21.37
2018-02-20T15:06:24.455Z,21.45
2018-02-20T15:08:51.108Z,21.47
2018-02-20T15:11:17.732Z,21.32
2018-02-20T15:13:44.688Z,21.41
2018-02-20T15:16:11.304Z,21.43
2018-02-20T15:18:38.168Z,21.48
2018-02-20T15:21:04.784Z,21.50
2018-02-20T15:23:31.421Z,21.44
2018-02-20T15:25:57.983Z,21.44
2018-02-20T15:28:24.638Z,21.39
2018-02-20T15:30:51.324Z,21.34
2018-02-20T15:33:17.898Z,21.41
2018-02-20T15:35:44.475Z,21.39
2018-02-20T15:38:11.049Z,21.31
2018-02-20T15:40:37.939Z,21.24
2018-02-20T15:43:05.530Z,21.22
2018-02-20T15:45:32.123Z,21.10
2018-02-20T15:47:58.743Z,20.91
2018-02-20T15:50:25.323Z,21.00
2018-02-20T15:52:51.905Z,20.98
2018-02-20T15:55:18.531Z,21.04
2018-02-20T15:57:45.235Z,21.00
2018-02-20T16:00:12.048Z,21.04
2018-02-20T16:02:38.642Z,20.95
2018-02-20T16:05:05.248Z,20.87
2018-02-20T16:07:31.829Z,20.78
2018-02-20T16:09:58.403Z,20.74
2018-02-20T16:12:25.032Z,20.81
2018-02-20T16:14:51.846Z,20.82
2018-02-20T16:17:18.422Z,20.81
2018-02-20T16:19:45.014Z,20.80
2018-02-20T16:22:11.599Z,20.76
2018-02-20T16:24:38.171Z,20.68
2018-02-20T16:27:04.733Z,20.62
2018-02-20T16:29:31.483Z,20.69
2018-02-20T16:31:58.038Z,20.63
2018-02-20T16:34:24.629Z,20.64
2018-02-20T16:36:51.305Z,20.64
2018-02-20T16:39:17.873Z,20.62
2018-02-20T16:41:44.608Z,20.64
2018-02-20T16:44:11.230Z,20.57
2018-02-20T16:46:37.877Z,20.48
2018-02-20T16:49:04.437Z,20.26
2018-02-20T16:51:31.004Z,20.50
2018-02-20T16:53:57.645Z,20.60
2018-02-20T16:56:24.259Z,20.51
2018-02-20T16:58:50.832Z,20.56
2018-02-20T17:01:17.469Z,20.34
2018-02-20T17:03:44.052Z,20.40
2018-02-20T17:06:10.727Z,20.39
2018-02-20T17:08:37.337Z,20.40
2018-02-20T17:11:03.915Z,20.41
2018-02-20T17:13:30.474Z,20.36
2018-02-20T17:15:57.104Z,20.34
2018-02-20T17:18:23.715Z,20.32
2018-02-20T17:20:50.343Z,20.36
2018-02-20T17:23:16.894Z,20.47
2018-02-20T17:25:43.568Z,20.72
2018-02-20T17:28:10.189Z,20.83
2018-02-20T17:30:36.799Z,20.78
2018-02-20T17:33:03.354Z,20.70
2018-02-20T17:35:29.929Z,20.56
2018-02-20T17:38:00.701Z,20.49
2018-02-20T17:40:23.129Z,20.45
2018-02-20T17:42:49.770Z,20.40
2018-02-20T17:45:16.333Z,20.36
2018-02-20T17:47:42.909Z,20.37
2018-02-20T17:50:09.549Z,20.35
2018-02-20T17:52:36.177Z,20.36
2018-02-20T17:55:02.742Z,20.34
2018-02-20T17:57:29.305Z,20.33
2018-02-20T17:59:55.908Z,20.34
2018-02-20T18:02:22.510Z,20.37
2018-02-20T18:04:49.081Z,20.36
2018-02-20T18:07:15.638Z,20.33
2018-02-20T18:12:40.761Z,20.35
2018-02-20T18:15:07.339Z,20.33
2018-02-20T18:17:33.905Z,20.36
2018-02-20T18:20:00.481Z,20.35
2018-02-20T18:22:27.052Z,20.36
2018-02-20T18:24:53.630Z,20.33
2018-02-20T18:27:20.237Z,20.36
2018-02-20T18:29:46.806Z,20.34
2018-02-20T18:32:13.427Z,20.35
2018-02-20T18:34:39.999Z,20.35
2018-02-20T18:37:06.627Z,20.35
2018-02-20T18:39:33.201Z,20.35
2018-02-20T18:41:59.901Z,20.30
2018-02-20T18:44:26.400Z,20.36
2018-02-20T18:46:52.998Z,20.35
2018-02-20T18:49:19.699Z,20.37
2018-02-20T18:51:46.284Z,20.38
2018-02-20T18:54:12.893Z,20.34
2018-02-20T18:56:39.468Z,20.36
2018-02-20T18:59:06.102Z,20.38
2018-02-20T19:01:32.668Z,20.38
2018-02-20T19:03:59.354Z,20.35
2018-02-20T19:06:25.943Z,20.37
2018-02-20T19:08:52.538Z,20.38
2018-02-20T19:11:19.151Z,20.43
2018-02-20T19:13:45.749Z,20.39
2018-02-20T19:16:12.408Z,20.42
2018-02-20T19:18:38.999Z,20.43
2018-02-20T19:21:05.574Z,20.43
2018-02-20T19:23:32.134Z,20.46
2018-02-20T19:25:58.745Z,20.45
2018-02-20T19:28:25.350Z,20.48
2018-02-20T19:30:51.916Z,20.48
2018-02-20T19:33:18.514Z,20.48
2018-02-20T19:35:45.068Z,20.47
2018-02-20T19:38:11.688Z,20.50
2018-02-20T19:40:38.352Z,20.51
2018-02-20T19:43:04.943Z,20.52
2018-02-20T19:45:31.684Z,20.52
2018-02-20T19:47:58.263Z,20.56
2018-02-20T19:50:24.878Z,20.55
2018-02-20T19:52:51.440Z,20.58
2018-02-20T19:55:18.058Z,20.59
2018-02-20T19:57:44.652Z,20.59
2018-02-20T20:00:11.316Z,20.64
2018-02-20T20:02:37.951Z,20.70
2018-02-20T20:05:04.565Z,20.82
2018-02-20T20:07:31.126Z,20.94
2018-02-20T20:09:57.761Z,21.10
2018-02-20T20:12:24.326Z,21.09
2018-02-20T20:14:50.884Z,20.97
2018-02-20T20:17:17.494Z,20.95
2018-02-20T20:19:44.062Z,20.91
2018-02-20T20:22:10.692Z,20.90
2018-02-20T20:24:37.339Z,20.87
2018-02-20T20:27:03.888Z,20.85
2018-02-20T20:29:30.445Z,20.86
2018-02-20T20:31:57.085Z,20.86
2018-02-20T20:34:23.656Z,20.87
2018-02-20T20:36:50.271Z,20.86
2018-02-20T20:39:16.883Z,20.88
2018-02-20T20:41:43.525Z,20.87
2018-02-20T20:44:10.130Z,20.86
2018-02-20T20:46:36.804Z,20.88
2018-02-20T20:49:03.338Z,20.91
2018-02-20T20:51:29.909Z,20.90
2018-02-20T20:53:56.515Z,20.88
2018-02-20T20:56:23.143Z,20.89
2018-02-20T20:58:49.802Z,20.88
2018-02-20T21:01:16.369Z,20.93
2018-02-20T21:03:42.990Z,20.91
2018-02-20T21:06:09.688Z,20.94
2018-02-20T21:08:36.354Z,20.93
2018-02-20T21:11:02.914Z,20.93
2018-02-20T21:13:29.505Z,20.93
2018-02-20T21:15:56.082Z,20.93
2018-02-20T21:18:22.663Z,20.95
2018-02-20T21:20:49.225Z,20.97
2018-02-20T21:23:15.794Z,20.97
2018-02-20T21:25:42.362Z,21.00
2018-02-20T21:28:09.008Z,21.02
2018-02-20T21:30:35.588Z,21.02
2018-02-20T21:33:02.212Z,21.02
2018-02-20T21:35:28.797Z,21.04
2018-02-20T21:37:55.390Z,21.03
2018-02-20T21:40:22.011Z,21.08
2018-02-20T21:42:48.597Z,21.08
2018-02-20T21:45:15.138Z,21.07
2018-02-20T21:47:41.748Z,21.10
2018-02-20T21:50:08.315Z,21.11
2018-02-20T21:52:34.923Z,21.11
2018-02-20T21:55:01.476Z,21.11
2018-02-20T21:57:28.041Z,21.11
2018-02-20T21:59:54.647Z,21.14
2018-02-20T22:02:21.221Z,21.13
2018-02-20T22:04:47.938Z,21.17
2018-02-20T22:07:14.510Z,21.16
2018-02-20T22:09:41.083Z,21.17
2018-02-20T22:12:07.674Z,21.17
2018-02-20T22:14:34.311Z,21.16
2018-02-20T22:17:00.910Z,21.18
2018-02-20T22:19:27.430Z,21.19
2018-02-20T22:21:54.014Z,21.19
2018-02-20T22:24:20.613Z,21.28
2018-02-20T22:26:47.289Z,21.43
2018-02-20T22:29:13.924Z,21.64
2018-02-20T22:31:40.486Z,21.73
2018-02-20T22:34:07.086Z,21.66
2018-02-20T22:36:33.766Z,21.55
2018-02-20T22:39:00.366Z,21.46
2018-02-20T22:41:26.928Z,21.37
2018-02-20T22:43:53.598Z,21.37
2018-02-20T22:46:20.325Z,21.36
2018-02-20T22:48:46.886Z,21.37
2018-02-20T22:51:13.454Z,21.35
2018-02-20T22:53:40.032Z,21.31
2018-02-20T22:56:06.597Z,21.34
2018-02-20T22:58:33.159Z,21.33
2018-02-20T23:00:59.723Z,21.32
2018-02-20T23:03:26.283Z,21.34
2018-02-20T23:05:52.894Z,21.33
2018-02-20T23:08:19.457Z,21.32
2018-02-20T23:10:46.089Z,21.34
2018-02-20T23:13:12.651Z,21.34
2018-02-20T23:15:39.274Z,21.34
2018-02-20T23:18:05.835Z,21.32
2018-02-20T23:20:32.441Z,21.35
2018-02-20T23:22:59.060Z,21.33
2018-02-20T23:25:25.741Z,21.36
2018-02-20T23:27:52.338Z,21.40
2018-02-20T23:30:18.965Z,21.36
2018-02-20T23:32:45.756Z,21.32
2018-02-20T23:35:12.321Z,21.36
2018-02-20T23:37:38.893Z,21.36
2018-02-20T23:40:05.462Z,21.33
2018-02-20T23:42:32.038Z,21.35
2018-02-20T23:44:58.673Z,21.38
2018-02-20T23:47:25.329Z,21.38
2018-02-20T23:49:51.822Z,21.35
2018-02-20T23:52:18.394Z,21.34
2018-02-20T23:54:44.967Z,21.37
2018-02-20T23:57:11.529Z,21.38
2018-02-20T23:59:38.125Z,21.35
